Latest Weather Observations for Merriwa

IDN60801

Issued at 3:23 am EDT Friday 29 January 2021 (issued every 10 minutes, with the page automatically refreshed every 10 minutes)

About weather observations | Map of weather stations | Latest weather observations for NSW | Other Formats
Station Details ID: 061287 Name: MERRIWA (ROSCOMMON) Lat: -32.19 Lon: 150.17 Height: 375.0 m
Data from the previous 72 hours. | See also: Recent months at Merriwa
Date/Time
EDT
Temp
°C
App
Temp
°C
Dew
Point
°C
Rel
Hum
%
Delta-T
°C
Wind Press
QNH
hPa
Press
MSL
hPa
Rain since
9am
mm
Dir  Spd
km/h
Gust
km/h
Spd
kts
Gust
kts
29/03:00am 18.2 16.9 15.8 86 1.4 ESE 17 22 9 12 1017.0 1015.1 0.0
29/02:30am 18.3 17.4 15.9 86 1.4 ESE 15 22 8 12 1017.1 1015.2 0.0
29/02:06am 18.2 17.0 16.0 87 1.3 ESE 17 24 9 13 1017.6 1015.6 0.0
29/02:00am 18.1 16.5 15.9 87 1.3 ESE 19 26 10 14 1017.6 1015.6 0.0
29/01:30am 17.9 15.7 15.9 88 1.2 ESE 22 30 12 16 1017.9 1015.9 0.0
29/01:05am 18.1 16.5 15.9 87 1.3 ESE 19 32 10 17 1018.1 1016.1 0.0
29/01:00am 18.1 16.3 15.9 87 1.3 ESE 20 30 11 16 1018.1 1016.1 0.0
29/12:30am 18.3 15.6 15.7 85 1.6 ESE 24 35 13 19 1018.0 1016.0 0.0
29/12:00am 18.5 16.3 15.9 85 1.6 ESE 22 32 12 17 1018.2 1016.3 0.0
 
Date/Time
EDT
Temp
°C
App
Temp
°C
Dew
Point
°C
Rel
Hum
%
Delta-T
°C
Wind Press
QNH
hPa
Press
MSL
hPa
Rain since
9am
mm
Dir  Spd
km/h
Gust
km/h
Spd
kts
Gust
kts
28/11:30pm 18.5 15.9 15.9 85 1.6 ESE 24 39 13 21 1018.5 1016.6 0.0
28/11:00pm 18.6 16.0 16.0 85 1.6 ESE 24 32 13 17 1018.6 1016.7 0.0
28/10:30pm 18.6 16.8 16.0 85 1.6 ESE 20 28 11 15 1018.7 1016.8 0.0
28/10:00pm 18.8 17.0 15.9 83 1.7 ESE 20 28 11 15 1018.7 1016.8 0.0
28/09:30pm 18.9 17.2 15.8 82 1.9 ESE 19 26 10 14 1018.7 1016.8 0.0
28/09:00pm 19.2 17.3 15.7 80 2.1 ESE 20 28 11 15 1018.4 1016.5 0.0
28/08:30pm 19.5 18.2 15.8 79 2.2 ESE 17 24 9 13 1018.3 1016.4 0.0
28/08:00pm 19.6 16.9 15.7 78 2.3 ESE 24 33 13 18 1018.1 1016.1 0.0
28/07:30pm 19.9 17.5 15.5 76 2.6 SE 22 32 12 17 1017.6 1015.6 0.0
28/07:00pm 20.5 17.8 15.5 73 3.0 SE 24 35 13 19 1017.5 1015.5 0.0
28/06:30pm 20.9 17.1 15.7 72 3.2 SE 30 41 16 22 1017.1 1015.2 0.0
28/06:00pm 21.6 17.4 16.1 71 3.4 ESE 33 44 18 24 1016.9 1015.0 0.0
28/05:30pm 21.9 18.2 16.0 69 3.6 ESE 30 43 16 23 1017.1 1015.2 0.0
28/05:00pm 22.6 19.4 16.2 67 3.9 SE 28 39 15 21 1017.0 1015.1 0.0
28/04:30pm 22.5 19.3 16.3 68 3.8 SE 28 44 15 24 1017.1 1015.2 0.0
28/04:00pm 22.8 18.5 16.8 69 3.7 ESE 35 44 19 24 1017.1 1015.2 0.0
28/03:30pm 21.5 18.3 17.3 77 2.6 SE 30 43 16 23 1017.6 1015.6 0.0
28/03:00pm 22.1 19.2 17.9 77 2.6 SE 30 43 16 23 1017.7 1015.7 0.0
28/02:30pm 22.8 20.0 17.3 71 3.4 SE 28 41 15 22 1017.9 1015.9 0.0
28/02:00pm 22.5 18.8 17.4 73 3.2 ESE 33 44 18 24 1018.1 1016.1 0.0
28/01:30pm 22.3 18.4 17.0 72 3.3 ESE 33 44 18 24 1018.3 1016.4 0.0
28/01:00pm 22.7 19.0 17.4 72 3.3 ESE 33 46 18 25 1018.6 1016.7 0.0
28/12:30pm 21.9 18.7 17.3 75 2.9 ESE 30 41 16 22 1018.8 1016.9 0.0
28/12:00pm 21.9 18.1 16.8 73 3.2 ESE 32 41 17 22 1018.8 1016.9 0.0
28/11:30am 21.5 18.2 16.9 75 2.9 ESE 30 39 16 21 1018.7 1016.8 0.0
28/11:00am 21.7 18.1 17.3 76 2.7 ESE 32 43 17 23 1018.8 1016.9 0.0
28/10:33am 21.4 17.5 16.4 73 3.1 ESE 32 50 17 27 1018.6 1016.7 0.0
28/10:30am 21.5 18.0 16.5 73 3.1 ESE 30 39 16 21 1018.6 1016.7 0.0
28/10:00am 21.4 18.2 16.4 73 3.1 E 28 43 15 23 1018.7 1016.8 0.0
28/09:33am 20.8 19.4 17.0 79 2.4 E 20 30 11 16 1018.4 1016.5 0.0
28/09:30am 20.5 19.1 16.9 80 2.2 E 20 28 11 15 1018.5 1016.6 0.0
28/09:00am 20.0 19.7 17.4 85 1.6 E 15 24 8 13 1018.7 1016.8 0.0
28/08:30am 19.1 18.2 16.9 87 1.4 E 17 22 9 12 1018.6 1016.7 0.0
28/08:00am 18.8 18.2 16.6 87 1.3 E 15 20 8 11 1018.5 1016.6 0.0
28/07:30am 18.8 18.2 16.6 87 1.3 E 15 20 8 11 1018.0 1016.0 0.0
28/07:00am 18.3 17.6 16.5 89 1.1 E 15 20 8 11 1017.5 1015.5 0.0
28/06:30am 18.5 17.2 16.8 90 1.0 E 19 24 10 13 1017.3 1015.3 0.0
28/06:02am 18.3 16.9 16.5 89 1.1 E 19 26 10 14 1016.9 1015.0 0.0
28/06:00am 18.4 17.0 16.6 89 1.1 E 19 26 10 14 1016.9 1015.0 0.0
28/05:51am 18.3 17.3 16.5 89 1.1 E 17 24 9 13 1016.8 1014.9 0.0
28/05:30am 18.4 17.7 16.4 88 1.2 E 15 20 8 11 1016.8 1014.9 0.0
28/05:03am 18.6 17.9 16.4 87 1.3 E 15 24 8 13 1016.3 1014.4 0.0
28/05:00am 18.6 18.3 16.4 87 1.3 E 13 24 7 13 1016.3 1014.4 0.0
28/04:30am 18.7 18.3 16.3 86 1.5 E 13 20 7 11 1016.2 1014.3 0.0
28/04:00am 18.6 17.8 16.2 86 1.5 E 15 22 8 12 1016.3 1014.4 0.0
28/03:30am 18.7 17.5 16.1 85 1.6 E 17 24 9 13 1016.2 1014.3 0.0
28/03:00am 18.8 17.6 16.2 85 1.6 E 17 28 9 15 1016.4 1014.5 0.0
28/02:30am 18.8 18.0 16.2 85 1.6 E 15 22 8 12 1016.6 1014.7 0.0
28/02:00am 19.0 17.5 16.2 84 1.7 E 19 26 10 14 1016.4 1014.5 0.0
28/01:30am 19.1 17.3 16.1 83 1.8 E 20 32 11 17 1016.6 1014.7 0.0
28/01:00am 19.3 17.8 16.3 83 1.8 E 19 28 10 15 1016.5 1014.6 0.0
28/12:30am 19.1 17.3 16.0 82 1.9 E 20 26 11 14 1016.4 1014.5 0.0
28/12:00am 19.3 18.1 16.2 82 1.9 ESE 17 26 9 14 1016.5 1014.6 0.0
 
Date/Time
EDT
Temp
°C
App
Temp
°C
Dew
Point
°C
Rel
Hum
%
Delta-T
°C
Wind Press
QNH
hPa
Press
MSL
hPa
Rain since
9am
mm
Dir  Spd
km/h
Gust
km/h
Spd
kts
Gust
kts
27/11:30pm 19.2 17.1 16.1 82 1.9 ESE 22 30 12 16 1016.5 1014.6 0.0
27/11:00pm 19.5 17.0 16.2 81 2.0 ESE 24 33 13 18 1016.5 1014.6 0.0
27/10:30pm 19.7 17.6 16.2 80 2.1 ESE 22 33 12 18 1016.6 1014.7 0.0
27/10:00pm 20.1 17.7 16.3 79 2.3 ESE 24 41 13 22 1016.6 1014.7 0.0
27/09:30pm 20.3 17.9 16.5 79 2.3 ESE 24 33 13 18 1016.5 1014.6 0.0
27/09:00pm 20.5 18.5 16.5 78 2.5 ESE 22 30 12 16 1015.8 1013.9 0.0
27/08:30pm 20.8 18.1 16.6 77 2.6 ESE 26 37 14 20 1015.3 1013.3 0.0
27/08:01pm 21.2 17.4 16.6 75 2.8 ESE 32 50 17 27 1014.8 1012.8 0.0
27/08:00pm 21.2 17.4 16.6 75 2.8 ESE 32 44 17 24 1014.8 1012.8 0.0
27/07:30pm 21.8 18.3 16.5 72 3.3 ESE 30 43 16 23 1014.3 1012.4 0.0
27/07:00pm 22.5 19.6 17.0 71 3.4 E 28 43 15 23 1013.7 1011.8 0.0
27/06:30pm 22.8 18.9 17.0 70 3.6 ESE 33 46 18 25 1013.4 1011.5 0.0
27/06:00pm 23.4 19.7 17.4 69 3.8 SE 33 43 18 23 1012.9 1010.9 0.0
27/05:30pm 24.9 21.7 18.1 66 4.3 ESE 32 46 17 25 1012.4 1010.4 0.0
27/05:00pm 25.8 23.0 18.2 63 4.9 ESE 30 43 16 23 1012.1 1010.1 0.0
27/04:30pm 26.5 23.4 18.4 61 5.2 ESE 32 44 17 24 1011.8 1009.8 0.0
27/04:00pm 26.9 23.1 18.2 59 5.6 SE 35 48 19 26 1011.7 1009.7 0.0
27/03:30pm 27.3 24.2 18.3 58 5.8 SE 32 41 17 22 1011.7 1009.7 0.0
27/03:00pm 28.2 25.7 18.9 57 6.1 ESE 30 41 16 22 1011.4 1009.5 0.0
27/02:30pm 28.3 25.2 18.4 55 6.4 ESE 32 44 17 24 1011.4 1009.5 0.0
27/02:00pm 29.9 26.6 18.3 49 7.6 ESE 33 44 18 24 1011.2 1009.3 0.0
27/01:30pm 30.0 28.0 18.4 49 7.6 ESE 26 35 14 19 1010.9 1008.9 0.0
27/01:00pm 30.7 28.4 19.4 51 7.5 ESE 30 43 16 23 1010.8 1008.8 0.0
27/12:30pm 31.0 29.6 19.7 51 7.5 ESE 26 35 14 19 1010.9 1008.9 0.0
27/12:00pm 30.1 29.5 18.8 50 7.4 E 20 32 11 17 1010.8 1008.8 0.0
27/11:30am 29.9 29.1 18.0 48 7.7 E 19 28 10 15 1010.8 1008.8 0.0
27/11:00am 30.1 28.9 19.2 52 7.2 ESE 24 32 13 17 1010.8 1008.8 0.0
27/10:30am 29.3 28.1 19.3 55 6.6 ESE 24 32 13 17 1010.8 1008.8 0.0
27/10:00am 28.8 28.2 19.7 58 6.0 ESE 22 32 12 17 1010.6 1008.6 0.0
27/09:30am 26.9 26.0 19.0 62 5.1 E 22 30 12 16 1010.5 1008.5 0.0
27/09:00am 27.6 26.9 19.4 61 5.4 ESE 22 30 12 16 1010.4 1008.4 0.0
27/08:30am 25.9 25.0 18.1 62 5.0 E 20 28 11 15 1010.1 1008.1 0.0
27/08:00am 26.2 25.3 18.3 61 5.1 ESE 20 30 11 16 1009.6 1007.6 0.0
27/07:30am 26.1 25.6 17.7 60 5.4 ESE 17 24 9 13 1009.2 1007.2 0.0
27/07:00am 23.3 24.9 18.2 73 3.3 E 7 13 4 7 1008.3 1006.3 0.0
27/06:30am 21.2 22.4 16.8 76 2.7 ESE 6 7 3 4 1007.7 1005.7 0.0
27/06:00am 21.5 23.1 16.9 75 2.9 S 4 6 2 3 1007.3 1005.3 0.0
27/05:30am 22.6 25.0 16.9 70 3.5 CALM 0 0 0 0 1006.8 1004.8 0.0
27/05:00am 22.9 25.7 18.0 74 3.1 CALM 0 0 0 0 1006.6 1004.6 0.0
27/04:30am 23.3 25.9 17.5 70 3.7 CALM 0 0 0 0 1006.2 1004.1 0.0
27/04:00am 24.0 25.2 16.8 64 4.5 SSE 6 7 3 4 1006.1 1004.0 0.0
27/03:30am 24.2 25.5 17.2 65 4.4 SW 6 7 3 4 1006.1 1004.0 0.0
27/03:00am 24.1 24.7 16.9 64 4.5 NE 9 11 5 6 1005.8 1003.8 0.0
27/02:30am 24.4 25.2 16.4 61 5.0 NE 7 9 4 5 1005.8 1003.8 0.0
27/02:00am 24.8 25.7 16.0 58 5.5 NNW 6 7 3 4 1005.8 1003.8 0.0
27/01:30am 25.8 26.1 16.9 58 5.6 WSW 11 19 6 10 1006.1 1004.0 0.0
27/01:00am 25.8 27.6 15.5 53 6.4 CALM 0 4 0 2 1005.8 1003.8 0.0
27/12:30am 26.2 27.9 16.2 54 6.2 ENE 2 7 1 4 1005.6 1003.6 0.0
27/12:00am 26.6 27.5 16.5 54 6.4 N 7 11 4 6 1005.7 1003.7 0.0
 
Date/Time
EDT
Temp
°C
App
Temp
°C
Dew
Point
°C
Rel
Hum
%
Delta-T
°C
Wind Press
QNH
hPa
Press
MSL
hPa
Rain since
9am
mm
Dir  Spd
km/h
Gust
km/h
Spd
kts
Gust
kts
26/11:30pm 26.6 27.1 16.5 54 6.3 NW 9 11 5 6 1005.7 1003.7 0.0
26/11:00pm 26.9 26.4 15.9 51 6.9 WNW 13 19 7 10 1005.7 1003.7 0.0
26/10:30pm 27.4 27.1 15.4 48 7.4 N 11 13 6 7 1005.4 1003.4 0.0
26/10:00pm 27.6 27.2 15.3 47 7.6 N 11 15 6 8 1005.1 1003.1 0.0
26/09:30pm 27.2 26.8 15.2 47 7.4 N 11 13 6 7 1004.9 1002.9 0.0
26/09:00pm 28.2 27.9 15.5 46 7.9 N 11 13 6 7 1004.6 1002.6 0.0
26/08:30pm 29.2 29.1 15.0 42 8.8 NNW 9 13 5 7 1004.4 1002.4 0.0
26/08:00pm 29.0 28.3 14.4 41 9.0 N 11 11 6 6 1004.1 1002.1 0.0
26/07:30pm 30.5 30.0 13.7 35 10.2 NNW 9 13 5 7 1003.7 1001.6 0.0
26/07:00pm 33.3 31.1 13.4 30 12.3 NW 17 28 9 15 1003.4 1001.3 0.0
26/06:30pm 34.1 31.4 13.5 28 12.7 NNW 20 30 11 16 1002.9 1000.9 0.0
26/06:00pm 35.4 33.9 14.1 28 13.3 NNW 15 24 8 13 1003.0 1001.0 0.0
26/05:30pm 35.4 33.1 14.6 28 13.1 NW 20 28 11 15 1003.1 1001.1 0.0
26/05:00pm 34.9 33.2 14.7 29 12.7 NW 17 30 9 16 1003.4 1001.3 0.0
26/04:30pm 33.7 31.5 13.2 29 12.6 NW 17 24 9 13 1003.5 1001.4 0.0
26/04:00pm 35.4 33.1 14.1 28 13.3 WNW 19 39 10 21 1003.5 1001.4 0.0
26/03:30pm 35.2 32.5 12.8 26 13.7 NW 19 33 10 18 1003.8 1001.7 0.0
26/03:00pm 35.1 33.5 14.9 29 12.8 NNW 17 26 9 14 1004.1 1002.1 0.0
26/02:30pm 35.2 32.1 13.4 27 13.5 WNW 22 33 12 18 1004.4 1002.4 0.0
26/02:00pm 34.0 31.7 12.9 28 12.9 NW 17 26 9 14 1004.7 1002.7 0.0
26/01:30pm 34.2 32.1 14.7 31 12.2 NW 19 28 10 15 1005.1 1003.1 0.0
26/01:00pm 33.4 31.2 14.5 32 11.8 NW 19 28 10 15 1005.4 1003.4 0.0
26/12:30pm 32.8 30.6 14.9 34 11.2 WNW 20 35 11 19 1005.8 1003.8 0.0
26/12:00pm 32.9 31.2 15.8 35 10.9 NW 19 32 10 17 1006.3 1004.2 0.0
26/11:30am 32.1 29.6 15.1 35 10.6 NW 22 33 12 18 1006.5 1004.5 0.0
26/11:00am 31.1 28.3 14.3 36 10.4 NW 22 32 12 17 1006.7 1004.7 0.0
26/10:30am 31.3 28.8 16.1 40 9.6 NW 24 32 13 17 1006.7 1004.7 0.0
26/10:00am 30.0 27.0 14.9 39 9.4 NNW 24 35 13 19 1006.9 1004.9 0.0
26/09:30am 29.4 27.7 16.2 44 8.3 NNW 20 30 11 16 1007.1 1005.1 0.0
26/09:00am 28.6 26.1 15.2 44 8.3 NNW 22 35 12 19 1007.2 1005.2 0.0
26/08:30am 27.2 27.1 13.9 44 8.0 W 7 19 4 10 1007.0 1005.0 0.0
26/08:00am 25.6 25.0 12.4 43 7.8 SSE 7 9 4 5 1006.8 1004.8 0.0
26/07:30am 23.9 24.4 14.0 54 5.9 SSW 4 7 2 4 1006.7 1004.7 0.0
26/07:00am 22.2 23.0 13.8 59 5.0 NW 2 9 1 5 1006.2 1004.1 0.0
26/06:30am 20.9 20.6 12.8 60 4.7 NE 6 11 3 6 1005.9 1003.9 0.0
26/06:19am 19.4 18.1 11.2 59 4.6 SE 9 11 5 6 1005.8 1003.8 0.0
26/06:00am 24.4 22.0 12.7 48 6.9 NNW 17 20 9 11 1005.4 1003.4 0.0
26/05:30am 24.5 22.1 12.8 48 6.9 NNW 17 22 9 12 1005.2 1003.2 0.0
26/05:00am 24.7 21.7 12.6 47 7.1 NNW 20 26 11 14 1005.2 1003.2 0.0
26/04:30am 24.5 21.6 12.8 48 6.9 NNW 20 26 11 14 1005.0 1003.0 0.0
26/04:00am 23.5 20.8 12.8 51 6.3 NNW 19 20 10 11 1005.2 1003.2 0.0
26/03:30am 24.2 21.5 12.8 49 6.7 NNW 19 22 10 12 1005.3 1003.3 0.0

Other formats

Comma delimited format used in spreadsheet applications
http://www.bom.gov.au/fwo/IDN60801/IDN60801.95754.axf

JavaScript Object Notation format (JSON) in row-major order
http://www.bom.gov.au/fwo/IDN60801/IDN60801.95754.json

Data quality

Most of these data are generated automatically and are frequently updated. Quality checks on data are not normally performed. It is possible for incorrect values to appear. Refer to information at About Latest Weather Observations and please check the disclaimer before using these data.